sensor_id;sensor_type;location;lat;lon;timestamp;P1;durP1;ratioP1;P2;durP2;ratioP2
10201;SDS011;5143;42.584;23.164;2023-05-07T00:01:58;8.43;;;5.60;;
10201;SDS011;5143;42.584;23.164;2023-05-07T00:04:25;8.80;;;6.03;;
10201;SDS011;5143;42.584;23.164;2023-05-07T00:06:53;7.43;;;5.23;;
10201;SDS011;5143;42.584;23.164;2023-05-07T00:09:20;7.13;;;5.40;;
10201;SDS011;5143;42.584;23.164;2023-05-07T00:11:48;6.87;;;5.70;;
10201;SDS011;5143;42.584;23.164;2023-05-07T00:14:15;6.30;;;5.17;;
10201;SDS011;5143;42.584;23.164;2023-05-07T00:16:41;7.10;;;5.37;;
10201;SDS011;5143;42.584;23.164;2023-05-07T00:19:08;11.17;;;5.40;;
10201;SDS011;5143;42.584;23.164;2023-05-07T00:21:35;8.80;;;5.20;;
10201;SDS011;5143;42.584;23.164;2023-05-07T00:24:02;9.23;;;5.70;;
10201;SDS011;5143;42.584;23.164;2023-05-07T00:26:29;8.87;;;5.87;;
10201;SDS011;5143;42.584;23.164;2023-05-07T00:28:58;7.90;;;4.90;;
10201;SDS011;5143;42.584;23.164;2023-05-07T00:31:24;7.63;;;5.37;;
10201;SDS011;5143;42.584;23.164;2023-05-07T00:33:51;8.83;;;5.43;;
10201;SDS011;5143;42.584;23.164;2023-05-07T00:36:18;5.43;;;4.63;;
10201;SDS011;5143;42.584;23.164;2023-05-07T00:38:45;8.73;;;5.20;;
10201;SDS011;5143;42.584;23.164;2023-05-07T00:41:11;8.43;;;5.20;;
10201;SDS011;5143;42.584;23.164;2023-05-07T00:43:38;8.83;;;5.50;;
10201;SDS011;5143;42.584;23.164;2023-05-07T00:46:06;7.00;;;5.40;;
10201;SDS011;5143;42.584;23.164;2023-05-07T00:48:33;5.93;;;4.83;;
10201;SDS011;5143;42.584;23.164;2023-05-07T00:51:00;8.47;;;5.43;;
10201;SDS011;5143;42.584;23.164;2023-05-07T00:53:26;11.93;;;6.00;;
10201;SDS011;5143;42.584;23.164;2023-05-07T00:55:53;12.40;;;5.70;;
10201;SDS011;5143;42.584;23.164;2023-05-07T00:58:22;8.13;;;6.17;;
10201;SDS011;5143;42.584;23.164;2023-05-07T01:00:49;8.83;;;5.63;;
10201;SDS011;5143;42.584;23.164;2023-05-07T01:03:18;9.03;;;6.20;;
10201;SDS011;5143;42.584;23.164;2023-05-07T01:05:45;8.60;;;5.40;;
10201;SDS011;5143;42.584;23.164;2023-05-07T01:08:14;7.70;;;5.20;;
10201;SDS011;5143;42.584;23.164;2023-05-07T01:10:42;7.73;;;5.00;;
10201;SDS011;5143;42.584;23.164;2023-05-07T01:13:09;9.30;;;5.17;;
10201;SDS011;5143;42.584;23.164;2023-05-07T01:15:37;10.30;;;5.37;;
10201;SDS011;5143;42.584;23.164;2023-05-07T01:18:05;11.83;;;5.87;;
10201;SDS011;5143;42.584;23.164;2023-05-07T01:20:34;10.93;;;5.70;;
10201;SDS011;5143;42.584;23.164;2023-05-07T01:23:02;9.10;;;5.80;;
10201;SDS011;5143;42.584;23.164;2023-05-07T01:25:29;8.00;;;4.97;;
10201;SDS011;5143;42.584;23.164;2023-05-07T01:27:56;10.10;;;5.90;;
10201;SDS011;5143;42.584;23.164;2023-05-07T01:30:25;7.50;;;5.37;;
10201;SDS011;5143;42.584;23.164;2023-05-07T01:32:53;10.43;;;5.27;;
10201;SDS011;5143;42.584;23.164;2023-05-07T01:35:28;10.13;;;5.67;;
10201;SDS011;5143;42.584;23.164;2023-05-07T01:38:03;9.40;;;5.23;;
10201;SDS011;5143;42.584;23.164;2023-05-07T01:40:31;10.10;;;6.20;;
10201;SDS011;5143;42.584;23.164;2023-05-07T01:42:59;10.73;;;6.23;;
10201;SDS011;5143;42.584;23.164;2023-05-07T01:45:26;6.80;;;4.60;;
10201;SDS011;5143;42.584;23.164;2023-05-07T01:47:53;7.87;;;5.33;;
10201;SDS011;5143;42.584;23.164;2023-05-07T01:50:21;19.97;;;5.37;;
10201;SDS011;5143;42.584;23.164;2023-05-07T01:52:49;8.27;;;5.23;;
10201;SDS011;5143;42.584;23.164;2023-05-07T01:55:18;7.37;;;4.20;;
10201;SDS011;5143;42.584;23.164;2023-05-07T01:57:45;7.70;;;5.17;;
10201;SDS011;5143;42.584;23.164;2023-05-07T02:00:12;9.00;;;5.73;;
10201;SDS011;5143;42.584;23.164;2023-05-07T02:02:39;7.43;;;5.13;;
10201;SDS011;5143;42.584;23.164;2023-05-07T02:05:06;10.77;;;5.50;;
10201;SDS011;5143;42.584;23.164;2023-05-07T02:07:33;7.87;;;5.00;;
10201;SDS011;5143;42.584;23.164;2023-05-07T02:10:00;7.20;;;5.50;;
10201;SDS011;5143;42.584;23.164;2023-05-07T02:12:29;10.37;;;6.13;;
10201;SDS011;5143;42.584;23.164;2023-05-07T02:14:56;9.20;;;5.50;;
10201;SDS011;5143;42.584;23.164;2023-05-07T02:17:23;7.63;;;5.10;;
10201;SDS011;5143;42.584;23.164;2023-05-07T02:19:50;9.53;;;5.23;;
10201;SDS011;5143;42.584;23.164;2023-05-07T02:22:17;15.27;;;5.57;;
10201;SDS011;5143;42.584;23.164;2023-05-07T02:24:44;8.63;;;5.60;;
10201;SDS011;5143;42.584;23.164;2023-05-07T02:27:11;7.13;;;5.10;;
10201;SDS011;5143;42.584;23.164;2023-05-07T02:29:39;6.40;;;5.33;;
10201;SDS011;5143;42.584;23.164;2023-05-07T02:32:06;7.27;;;5.10;;
10201;SDS011;5143;42.584;23.164;2023-05-07T02:34:32;5.63;;;4.63;;
10201;SDS011;5143;42.584;23.164;2023-05-07T02:36:59;6.83;;;4.73;;
10201;SDS011;5143;42.584;23.164;2023-05-07T02:39:26;6.73;;;4.93;;
10201;SDS011;5143;42.584;23.164;2023-05-07T02:41:52;10.17;;;4.87;;
10201;SDS011;5143;42.584;23.164;2023-05-07T02:44:19;8.73;;;4.63;;
10201;SDS011;5143;42.584;23.164;2023-05-07T02:46:47;7.97;;;5.60;;
10201;SDS011;5143;42.584;23.164;2023-05-07T02:49:14;9.63;;;4.80;;
10201;SDS011;5143;42.584;23.164;2023-05-07T02:51:41;9.23;;;4.90;;
10201;SDS011;5143;42.584;23.164;2023-05-07T02:54:07;7.23;;;4.93;;
10201;SDS011;5143;42.584;23.164;2023-05-07T02:56:34;10.70;;;5.10;;
10201;SDS011;5143;42.584;23.164;2023-05-07T02:59:01;9.57;;;5.40;;
10201;SDS011;5143;42.584;23.164;2023-05-07T03:01:28;10.87;;;5.30;;
10201;SDS011;5143;42.584;23.164;2023-05-07T03:03:56;9.60;;;5.33;;
10201;SDS011;5143;42.584;23.164;2023-05-07T03:06:23;9.83;;;4.87;;
10201;SDS011;5143;42.584;23.164;2023-05-07T03:08:49;8.57;;;4.93;;
10201;SDS011;5143;42.584;23.164;2023-05-07T03:11:16;7.13;;;4.10;;
10201;SDS011;5143;42.584;23.164;2023-05-07T03:13:43;7.20;;;5.33;;
10201;SDS011;5143;42.584;23.164;2023-05-07T03:16:10;11.77;;;5.60;;
10201;SDS011;5143;42.584;23.164;2023-05-07T03:18:37;8.20;;;5.17;;
10201;SDS011;5143;42.584;23.164;2023-05-07T03:21:05;13.87;;;5.53;;
10201;SDS011;5143;42.584;23.164;2023-05-07T03:23:31;13.30;;;6.00;;
10201;SDS011;5143;42.584;23.164;2023-05-07T03:25:58;9.30;;;5.40;;
10201;SDS011;5143;42.584;23.164;2023-05-07T03:28:25;12.77;;;5.30;;
10201;SDS011;5143;42.584;23.164;2023-05-07T03:30:51;16.70;;;5.20;;
10201;SDS011;5143;42.584;23.164;2023-05-07T03:33:18;13.43;;;5.10;;
10201;SDS011;5143;42.584;23.164;2023-05-07T03:35:45;6.23;;;4.93;;
10201;SDS011;5143;42.584;23.164;2023-05-07T03:38:13;11.17;;;5.27;;
10201;SDS011;5143;42.584;23.164;2023-05-07T03:40:40;11.60;;;5.70;;
10201;SDS011;5143;42.584;23.164;2023-05-07T03:43:07;10.10;;;5.73;;
10201;SDS011;5143;42.584;23.164;2023-05-07T03:45:34;9.60;;;6.57;;
10201;SDS011;5143;42.584;23.164;2023-05-07T03:48:00;11.53;;;6.50;;
10201;SDS011;5143;42.584;23.164;2023-05-07T03:50:27;13.00;;;6.37;;
10201;SDS011;5143;42.584;23.164;2023-05-07T03:52:54;10.63;;;6.70;;
10201;SDS011;5143;42.584;23.164;2023-05-07T03:55:22;10.33;;;6.47;;
10201;SDS011;5143;42.584;23.164;2023-05-07T03:57:50;9.97;;;6.50;;
10201;SDS011;5143;42.584;23.164;2023-05-07T04:00:17;13.07;;;6.30;;
10201;SDS011;5143;42.584;23.164;2023-05-07T04:02:45;14.00;;;6.27;;
10201;SDS011;5143;42.584;23.164;2023-05-07T04:05:11;7.77;;;5.37;;
10201;SDS011;5143;42.584;23.164;2023-05-07T04:07:40;12.73;;;5.13;;
10201;SDS011;5143;42.584;23.164;2023-05-07T04:10:07;11.83;;;5.00;;
10201;SDS011;5143;42.584;23.164;2023-05-07T04:12:36;10.10;;;6.23;;
10201;SDS011;5143;42.584;23.164;2023-05-07T04:15:03;11.73;;;6.50;;
10201;SDS011;5143;42.584;23.164;2023-05-07T04:17:30;11.13;;;6.17;;
10201;SDS011;5143;42.584;23.164;2023-05-07T04:19:57;13.67;;;5.97;;
10201;SDS011;5143;42.584;23.164;2023-05-07T04:22:24;10.40;;;5.50;;
10201;SDS011;5143;42.584;23.164;2023-05-07T04:24:50;11.80;;;6.13;;
10201;SDS011;5143;42.584;23.164;2023-05-07T04:27:17;12.50;;;6.10;;
10201;SDS011;5143;42.584;23.164;2023-05-07T04:29:46;17.00;;;5.93;;
10201;SDS011;5143;42.584;23.164;2023-05-07T04:32:13;9.77;;;5.93;;
10201;SDS011;5143;42.584;23.164;2023-05-07T04:34:40;12.60;;;5.97;;
10201;SDS011;5143;42.584;23.164;2023-05-07T04:37:07;6.73;;;5.40;;
10201;SDS011;5143;42.584;23.164;2023-05-07T04:39:34;12.90;;;4.80;;
10201;SDS011;5143;42.584;23.164;2023-05-07T04:42:01;8.70;;;4.30;;
10201;SDS011;5143;42.584;23.164;2023-05-07T04:44:28;5.93;;;4.30;;
10201;SDS011;5143;42.584;23.164;2023-05-07T04:46:57;6.67;;;4.10;;
10201;SDS011;5143;42.584;23.164;2023-05-07T04:49:24;6.60;;;4.17;;
10201;SDS011;5143;42.584;23.164;2023-05-07T04:51:51;5.63;;;4.20;;
10201;SDS011;5143;42.584;23.164;2023-05-07T04:54:17;10.50;;;4.33;;
10201;SDS011;5143;42.584;23.164;2023-05-07T04:56:44;4.70;;;4.10;;
10201;SDS011;5143;42.584;23.164;2023-05-07T04:59:11;9.40;;;4.70;;
10201;SDS011;5143;42.584;23.164;2023-05-07T05:01:38;7.27;;;4.30;;
10201;SDS011;5143;42.584;23.164;2023-05-07T05:04:06;10.50;;;5.70;;
10201;SDS011;5143;42.584;23.164;2023-05-07T05:06:33;5.23;;;4.23;;
10201;SDS011;5143;42.584;23.164;2023-05-07T05:09:00;13.73;;;7.87;;
10201;SDS011;5143;42.584;23.164;2023-05-07T05:11:28;11.40;;;7.50;;
10201;SDS011;5143;42.584;23.164;2023-05-07T05:13:54;9.45;;;5.43;;
10201;SDS011;5143;42.584;23.164;2023-05-07T05:16:21;6.25;;;4.20;;
10201;SDS011;5143;42.584;23.164;2023-05-07T05:18:48;6.40;;;3.58;;
10201;SDS011;5143;42.584;23.164;2023-05-07T05:21:18;7.78;;;3.45;;
10201;SDS011;5143;42.584;23.164;2023-05-07T05:23:45;7.32;;;3.85;;
10201;SDS011;5143;42.584;23.164;2023-05-07T05:26:12;4.97;;;3.33;;
10201;SDS011;5143;42.584;23.164;2023-05-07T05:28:38;5.43;;;3.65;;
10201;SDS011;5143;42.584;23.164;2023-05-07T05:31:05;6.00;;;3.10;;
10201;SDS011;5143;42.584;23.164;2023-05-07T05:33:32;3.03;;;2.42;;
10201;SDS011;5143;42.584;23.164;2023-05-07T05:35:59;4.05;;;2.30;;
10201;SDS011;5143;42.584;23.164;2023-05-07T05:38:27;4.50;;;1.98;;
10201;SDS011;5143;42.584;23.164;2023-05-07T05:40:54;4.32;;;2.08;;
10201;SDS011;5143;42.584;23.164;2023-05-07T05:43:20;4.00;;;2.00;;
10201;SDS011;5143;42.584;23.164;2023-05-07T05:45:47;3.08;;;2.10;;
10201;SDS011;5143;42.584;23.164;2023-05-07T05:48:14;4.22;;;2.30;;
10201;SDS011;5143;42.584;23.164;2023-05-07T05:50:41;8.55;;;2.50;;
10201;SDS011;5143;42.584;23.164;2023-05-07T05:53:08;4.65;;;2.50;;
10201;SDS011;5143;42.584;23.164;2023-05-07T05:55:36;5.45;;;3.00;;
10201;SDS011;5143;42.584;23.164;2023-05-07T05:58:03;6.95;;;2.50;;
10201;SDS011;5143;42.584;23.164;2023-05-07T06:00:30;5.85;;;3.33;;
10201;SDS011;5143;42.584;23.164;2023-05-07T06:02:57;5.30;;;3.00;;
10201;SDS011;5143;42.584;23.164;2023-05-07T06:05:24;5.13;;;2.67;;
10201;SDS011;5143;42.584;23.164;2023-05-07T06:07:50;9.32;;;2.90;;
10201;SDS011;5143;42.584;23.164;2023-05-07T06:10:17;5.03;;;2.65;;
10201;SDS011;5143;42.584;23.164;2023-05-07T06:12:45;6.50;;;2.45;;
10201;SDS011;5143;42.584;23.164;2023-05-07T06:15:12;8.57;;;2.78;;
10201;SDS011;5143;42.584;23.164;2023-05-07T06:17:39;3.90;;;2.45;;
10201;SDS011;5143;42.584;23.164;2023-05-07T06:20:06;3.63;;;2.30;;
10201;SDS011;5143;42.584;23.164;2023-05-07T06:22:33;6.28;;;2.50;;
10201;SDS011;5143;42.584;23.164;2023-05-07T06:25:00;5.75;;;2.50;;
10201;SDS011;5143;42.584;23.164;2023-05-07T06:27:27;6.20;;;2.78;;
10201;SDS011;5143;42.584;23.164;2023-05-07T06:29:57;6.75;;;2.72;;
10201;SDS011;5143;42.584;23.164;2023-05-07T06:32:23;4.68;;;2.20;;
10201;SDS011;5143;42.584;23.164;2023-05-07T06:34:50;5.97;;;2.05;;
10201;SDS011;5143;42.584;23.164;2023-05-07T06:37:17;5.47;;;2.70;;
10201;SDS011;5143;42.584;23.164;2023-05-07T06:39:43;7.00;;;2.60;;
10201;SDS011;5143;42.584;23.164;2023-05-07T06:42:10;4.20;;;1.90;;
10201;SDS011;5143;42.584;23.164;2023-05-07T06:44:37;3.35;;;2.15;;
10201;SDS011;5143;42.584;23.164;2023-05-07T06:47:05;5.45;;;2.30;;
10201;SDS011;5143;42.584;23.164;2023-05-07T06:49:32;3.70;;;2.47;;
10201;SDS011;5143;42.584;23.164;2023-05-07T06:51:59;4.28;;;2.60;;
10201;SDS011;5143;42.584;23.164;2023-05-07T06:54:25;5.13;;;2.40;;
10201;SDS011;5143;42.584;23.164;2023-05-07T06:56:52;5.53;;;2.83;;
10201;SDS011;5143;42.584;23.164;2023-05-07T06:59:19;6.60;;;2.80;;
10201;SDS011;5143;42.584;23.164;2023-05-07T07:01:46;10.00;;;2.50;;
10201;SDS011;5143;42.584;23.164;2023-05-07T07:04:14;5.35;;;3.30;;
10201;SDS011;5143;42.584;23.164;2023-05-07T07:06:41;7.80;;;2.60;;
10201;SDS011;5143;42.584;23.164;2023-05-07T07:09:07;5.00;;;2.17;;
10201;SDS011;5143;42.584;23.164;2023-05-07T07:11:34;6.40;;;2.50;;
10201;SDS011;5143;42.584;23.164;2023-05-07T07:14:01;4.72;;;2.35;;
10201;SDS011;5143;42.584;23.164;2023-05-07T07:16:30;5.82;;;2.50;;
10201;SDS011;5143;42.584;23.164;2023-05-07T07:18:56;4.93;;;2.95;;
10201;SDS011;5143;42.584;23.164;2023-05-07T07:21:25;4.82;;;3.03;;
10201;SDS011;5143;42.584;23.164;2023-05-07T07:23:52;5.47;;;2.50;;
10201;SDS011;5143;42.584;23.164;2023-05-07T07:26:18;10.40;;;3.50;;
10201;SDS011;5143;42.584;23.164;2023-05-07T07:28:45;5.07;;;3.10;;
10201;SDS011;5143;42.584;23.164;2023-05-07T07:31:12;6.88;;;3.40;;
10201;SDS011;5143;42.584;23.164;2023-05-07T07:33:39;6.10;;;3.05;;
10201;SDS011;5143;42.584;23.164;2023-05-07T07:36:06;7.10;;;3.47;;
10201;SDS011;5143;42.584;23.164;2023-05-07T07:38:34;5.35;;;3.17;;
10201;SDS011;5143;42.584;23.164;2023-05-07T07:41:01;7.32;;;3.20;;
10201;SDS011;5143;42.584;23.164;2023-05-07T07:43:28;5.65;;;3.22;;
10201;SDS011;5143;42.584;23.164;2023-05-07T07:45:55;8.45;;;3.20;;
10201;SDS011;5143;42.584;23.164;2023-05-07T07:48:22;8.10;;;3.35;;
10201;SDS011;5143;42.584;23.164;2023-05-07T07:50:49;5.95;;;3.20;;
10201;SDS011;5143;42.584;23.164;2023-05-07T07:53:16;7.30;;;3.20;;
10201;SDS011;5143;42.584;23.164;2023-05-07T07:55:45;8.50;;;3.40;;
10201;SDS011;5143;42.584;23.164;2023-05-07T07:58:12;7.35;;;3.20;;
10201;SDS011;5143;42.584;23.164;2023-05-07T08:00:38;4.78;;;3.10;;
10201;SDS011;5143;42.584;23.164;2023-05-07T08:03:05;5.68;;;3.30;;
10201;SDS011;5143;42.584;23.164;2023-05-07T08:05:32;5.35;;;2.97;;
10201;SDS011;5143;42.584;23.164;2023-05-07T08:07:59;7.78;;;3.30;;
10201;SDS011;5143;42.584;23.164;2023-05-07T08:10:25;6.88;;;2.35;;
10201;SDS011;5143;42.584;23.164;2023-05-07T08:12:54;3.67;;;2.08;;
10201;SDS011;5143;42.584;23.164;2023-05-07T08:15:20;4.32;;;2.20;;
10201;SDS011;5143;42.584;23.164;2023-05-07T08:17:47;3.22;;;2.10;;
10201;SDS011;5143;42.584;23.164;2023-05-07T08:20:14;3.75;;;2.35;;
10201;SDS011;5143;42.584;23.164;2023-05-07T08:22:41;5.35;;;2.60;;
10201;SDS011;5143;42.584;23.164;2023-05-07T08:25:08;6.23;;;3.53;;
10201;SDS011;5143;42.584;23.164;2023-05-07T08:27:35;8.80;;;3.03;;
10201;SDS011;5143;42.584;23.164;2023-05-07T08:30:03;5.43;;;2.63;;
10201;SDS011;5143;42.584;23.164;2023-05-07T08:32:31;4.13;;;2.53;;
10201;SDS011;5143;42.584;23.164;2023-05-07T08:34:58;4.43;;;2.40;;
10201;SDS011;5143;42.584;23.164;2023-05-07T08:37:24;3.40;;;2.43;;
10201;SDS011;5143;42.584;23.164;2023-05-07T08:39:51;5.07;;;2.60;;
10201;SDS011;5143;42.584;23.164;2023-05-07T08:42:18;3.90;;;2.30;;
10201;SDS011;5143;42.584;23.164;2023-05-07T08:44:46;4.23;;;2.47;;
10201;SDS011;5143;42.584;23.164;2023-05-07T08:47:19;2.57;;;2.10;;
10201;SDS011;5143;42.584;23.164;2023-05-07T08:49:49;2.97;;;1.80;;
10201;SDS011;5143;42.584;23.164;2023-05-07T08:52:16;3.33;;;2.10;;
10201;SDS011;5143;42.584;23.164;2023-05-07T08:54:45;6.63;;;2.70;;
10201;SDS011;5143;42.584;23.164;2023-05-07T08:57:12;6.53;;;2.00;;
10201;SDS011;5143;42.584;23.164;2023-05-07T08:59:39;3.37;;;2.20;;
10201;SDS011;5143;42.584;23.164;2023-05-07T09:02:06;7.70;;;2.50;;
10201;SDS011;5143;42.584;23.164;2023-05-07T09:04:37;5.70;;;2.40;;
10201;SDS011;5143;42.584;23.164;2023-05-07T09:07:04;3.17;;;2.33;;
10201;SDS011;5143;42.584;23.164;2023-05-07T09:09:31;5.30;;;2.57;;
10201;SDS011;5143;42.584;23.164;2023-05-07T09:11:59;3.33;;;2.37;;
10201;SDS011;5143;42.584;23.164;2023-05-07T09:14:27;5.50;;;2.50;;
10201;SDS011;5143;42.584;23.164;2023-05-07T09:16:54;4.50;;;2.13;;
10201;SDS011;5143;42.584;23.164;2023-05-07T09:19:22;3.23;;;2.37;;
10201;SDS011;5143;42.584;23.164;2023-05-07T09:21:51;4.07;;;2.67;;
10201;SDS011;5143;42.584;23.164;2023-05-07T09:24:24;10.23;;;2.80;;
10201;SDS011;5143;42.584;23.164;2023-05-07T09:26:51;14.10;;;2.67;;
10201;SDS011;5143;42.584;23.164;2023-05-07T09:29:18;3.87;;;2.43;;
10201;SDS011;5143;42.584;23.164;2023-05-07T09:31:45;13.37;;;3.00;;
10201;SDS011;5143;42.584;23.164;2023-05-07T09:34:11;9.90;;;3.77;;
10201;SDS011;5143;42.584;23.164;2023-05-07T09:36:38;12.40;;;3.43;;
10201;SDS011;5143;42.584;23.164;2023-05-07T09:39:06;9.50;;;3.17;;
10201;SDS011;5143;42.584;23.164;2023-05-07T09:41:36;8.60;;;3.03;;
10201;SDS011;5143;42.584;23.164;2023-05-07T09:44:09;11.93;;;3.23;;
10201;SDS011;5143;42.584;23.164;2023-05-07T09:46:37;6.03;;;2.80;;
10201;SDS011;5143;42.584;23.164;2023-05-07T09:49:05;10.10;;;2.97;;
10201;SDS011;5143;42.584;23.164;2023-05-07T09:51:39;3.57;;;2.70;;
10201;SDS011;5143;42.584;23.164;2023-05-07T09:54:10;5.47;;;2.83;;
10201;SDS011;5143;42.584;23.164;2023-05-07T09:56:38;6.23;;;2.60;;
10201;SDS011;5143;42.584;23.164;2023-05-07T09:59:06;4.37;;;2.80;;
10201;SDS011;5143;42.584;23.164;2023-05-07T10:01:33;8.53;;;3.00;;
10201;SDS011;5143;42.584;23.164;2023-05-07T10:04:02;5.70;;;2.97;;
10201;SDS011;5143;42.584;23.164;2023-05-07T10:06:29;6.97;;;3.07;;
10201;SDS011;5143;42.584;23.164;2023-05-07T10:08:56;4.47;;;2.90;;
10201;SDS011;5143;42.584;23.164;2023-05-07T10:11:25;5.47;;;2.50;;
10201;SDS011;5143;42.584;23.164;2023-05-07T10:13:52;10.40;;;2.60;;
10201;SDS011;5143;42.584;23.164;2023-05-07T10:16:19;6.33;;;3.27;;
10201;SDS011;5143;42.584;23.164;2023-05-07T10:18:47;3.70;;;2.40;;
10201;SDS011;5143;42.584;23.164;2023-05-07T10:21:15;7.97;;;2.90;;
10201;SDS011;5143;42.584;23.164;2023-05-07T10:23:44;7.40;;;2.70;;
10201;SDS011;5143;42.584;23.164;2023-05-07T10:26:11;7.87;;;2.60;;
10201;SDS011;5143;42.584;23.164;2023-05-07T10:28:43;5.63;;;3.07;;
10201;SDS011;5143;42.584;23.164;2023-05-07T10:34:07;6.13;;;2.63;;
10201;SDS011;5143;42.584;23.164;2023-05-07T10:36:37;9.63;;;3.10;;
10201;SDS011;5143;42.584;23.164;2023-05-07T10:39:04;4.43;;;2.80;;
10201;SDS011;5143;42.584;23.164;2023-05-07T10:41:32;4.20;;;2.70;;
10201;SDS011;5143;42.584;23.164;2023-05-07T10:44:00;6.60;;;2.63;;
10201;SDS011;5143;42.584;23.164;2023-05-07T10:46:27;5.80;;;2.60;;
10201;SDS011;5143;42.584;23.164;2023-05-07T10:49:06;2.90;;;2.23;;
10201;SDS011;5143;42.584;23.164;2023-05-07T10:51:37;10.73;;;2.60;;
10201;SDS011;5143;42.584;23.164;2023-05-07T10:56:52;7.33;;;2.60;;
10201;SDS011;5143;42.584;23.164;2023-05-07T10:59:36;8.50;;;3.10;;
10201;SDS011;5143;42.584;23.164;2023-05-07T11:02:09;9.00;;;2.93;;
10201;SDS011;5143;42.584;23.164;2023-05-07T11:04:39;5.00;;;2.50;;
10201;SDS011;5143;42.584;23.164;2023-05-07T11:09:55;4.33;;;2.30;;
10201;SDS011;5143;42.584;23.164;2023-05-07T11:15:39;11.13;;;2.60;;
10201;SDS011;5143;42.584;23.164;2023-05-07T11:18:08;6.70;;;2.17;;
10201;SDS011;5143;42.584;23.164;2023-05-07T11:20:51;6.63;;;2.40;;
10201;SDS011;5143;42.584;23.164;2023-05-07T11:26:42;5.43;;;2.50;;
10201;SDS011;5143;42.584;23.164;2023-05-07T11:29:10;9.63;;;2.50;;
10201;SDS011;5143;42.584;23.164;2023-05-07T11:31:39;6.60;;;2.90;;
10201;SDS011;5143;42.584;23.164;2023-05-07T11:34:06;6.13;;;2.30;;
10201;SDS011;5143;42.584;23.164;2023-05-07T11:36:33;10.00;;;2.53;;
10201;SDS011;5143;42.584;23.164;2023-05-07T11:39:00;3.83;;;2.47;;
10201;SDS011;5143;42.584;23.164;2023-05-07T11:41:33;6.17;;;2.30;;
10201;SDS011;5143;42.584;23.164;2023-05-07T11:44:01;11.37;;;2.53;;
10201;SDS011;5143;42.584;23.164;2023-05-07T11:46:28;3.97;;;2.07;;
10201;SDS011;5143;42.584;23.164;2023-05-07T11:48:56;3.67;;;2.20;;
10201;SDS011;5143;42.584;23.164;2023-05-07T11:51:23;11.57;;;2.77;;
10201;SDS011;5143;42.584;23.164;2023-05-07T11:53:52;4.53;;;2.20;;
10201;SDS011;5143;42.584;23.164;2023-05-07T11:56:19;5.47;;;2.50;;
10201;SDS011;5143;42.584;23.164;2023-05-07T11:58:47;7.53;;;2.40;;
10201;SDS011;5143;42.584;23.164;2023-05-07T12:01:16;7.17;;;2.20;;
10201;SDS011;5143;42.584;23.164;2023-05-07T12:03:44;5.67;;;2.20;;
10201;SDS011;5143;42.584;23.164;2023-05-07T12:06:13;2.97;;;1.60;;
10201;SDS011;5143;42.584;23.164;2023-05-07T12:08:41;5.70;;;2.30;;
10201;SDS011;5143;42.584;23.164;2023-05-07T12:11:09;4.50;;;2.03;;
10201;SDS011;5143;42.584;23.164;2023-05-07T12:13:38;6.57;;;2.17;;
10201;SDS011;5143;42.584;23.164;2023-05-07T12:16:05;3.53;;;2.13;;
10201;SDS011;5143;42.584;23.164;2023-05-07T12:18:34;6.03;;;2.57;;
10201;SDS011;5143;42.584;23.164;2023-05-07T12:21:02;3.83;;;2.23;;
10201;SDS011;5143;42.584;23.164;2023-05-07T12:23:31;2.67;;;2.00;;
10201;SDS011;5143;42.584;23.164;2023-05-07T12:25:59;9.23;;;2.30;;
10201;SDS011;5143;42.584;23.164;2023-05-07T12:28:26;4.70;;;2.53;;
10201;SDS011;5143;42.584;23.164;2023-05-07T12:30:53;5.03;;;2.40;;
10201;SDS011;5143;42.584;23.164;2023-05-07T12:33:23;7.83;;;2.67;;
10201;SDS011;5143;42.584;23.164;2023-05-07T12:35:52;6.53;;;2.30;;
10201;SDS011;5143;42.584;23.164;2023-05-07T12:38:20;3.93;;;2.50;;
10201;SDS011;5143;42.584;23.164;2023-05-07T12:40:48;4.90;;;2.43;;
10201;SDS011;5143;42.584;23.164;2023-05-07T12:43:17;4.43;;;2.87;;
10201;SDS011;5143;42.584;23.164;2023-05-07T12:45:44;3.43;;;2.20;;
10201;SDS011;5143;42.584;23.164;2023-05-07T12:48:12;5.60;;;2.20;;
10201;SDS011;5143;42.584;23.164;2023-05-07T12:50:40;7.40;;;2.60;;
10201;SDS011;5143;42.584;23.164;2023-05-07T12:53:07;6.70;;;2.60;;
10201;SDS011;5143;42.584;23.164;2023-05-07T12:55:40;5.77;;;2.50;;
10201;SDS011;5143;42.584;23.164;2023-05-07T12:58:09;8.33;;;2.87;;
10201;SDS011;5143;42.584;23.164;2023-05-07T13:00:42;6.17;;;2.80;;
10201;SDS011;5143;42.584;23.164;2023-05-07T13:03:09;7.37;;;2.43;;
10201;SDS011;5143;42.584;23.164;2023-05-07T13:05:36;11.73;;;2.97;;
10201;SDS011;5143;42.584;23.164;2023-05-07T13:08:03;6.03;;;3.10;;
10201;SDS011;5143;42.584;23.164;2023-05-07T13:10:30;5.20;;;2.70;;
10201;SDS011;5143;42.584;23.164;2023-05-07T13:12:57;6.70;;;3.20;;
10201;SDS011;5143;42.584;23.164;2023-05-07T13:15:26;5.17;;;2.67;;
10201;SDS011;5143;42.584;23.164;2023-05-07T13:17:53;7.97;;;3.27;;
10201;SDS011;5143;42.584;23.164;2023-05-07T13:20:20;11.57;;;3.40;;
10201;SDS011;5143;42.584;23.164;2023-05-07T13:22:47;5.73;;;3.07;;
10201;SDS011;5143;42.584;23.164;2023-05-07T13:25:13;8.40;;;3.43;;
10201;SDS011;5143;42.584;23.164;2023-05-07T13:27:40;12.30;;;3.60;;
10201;SDS011;5143;42.584;23.164;2023-05-07T13:30:07;7.43;;;3.07;;
10201;SDS011;5143;42.584;23.164;2023-05-07T13:32:35;7.63;;;3.60;;
10201;SDS011;5143;42.584;23.164;2023-05-07T13:35:02;3.27;;;2.60;;
10201;SDS011;5143;42.584;23.164;2023-05-07T13:37:29;8.00;;;2.30;;
10201;SDS011;5143;42.584;23.164;2023-05-07T13:39:56;4.50;;;2.17;;
10201;SDS011;5143;42.584;23.164;2023-05-07T13:42:23;4.13;;;2.17;;
10201;SDS011;5143;42.584;23.164;2023-05-07T13:44:50;5.67;;;2.13;;
10201;SDS011;5143;42.584;23.164;2023-05-07T13:47:17;5.67;;;2.40;;
10201;SDS011;5143;42.584;23.164;2023-05-07T13:49:45;6.87;;;2.10;;
10201;SDS011;5143;42.584;23.164;2023-05-07T13:52:14;5.40;;;2.20;;
10201;SDS011;5143;42.584;23.164;2023-05-07T13:54:41;5.17;;;2.03;;
10201;SDS011;5143;42.584;23.164;2023-05-07T13:57:08;2.53;;;2.20;;
10201;SDS011;5143;42.584;23.164;2023-05-07T13:59:35;6.80;;;2.30;;
10201;SDS011;5143;42.584;23.164;2023-05-07T14:02:02;4.20;;;1.90;;
10201;SDS011;5143;42.584;23.164;2023-05-07T14:04:28;12.60;;;2.30;;
10201;SDS011;5143;42.584;23.164;2023-05-07T14:06:57;7.70;;;2.20;;
10201;SDS011;5143;42.584;23.164;2023-05-07T14:09:24;6.07;;;2.17;;
10201;SDS011;5143;42.584;23.164;2023-05-07T14:11:51;5.73;;;2.17;;
10201;SDS011;5143;42.584;23.164;2023-05-07T14:14:18;5.00;;;2.27;;
10201;SDS011;5143;42.584;23.164;2023-05-07T14:16:44;6.60;;;2.00;;
10201;SDS011;5143;42.584;23.164;2023-05-07T14:19:11;5.07;;;2.23;;
10201;SDS011;5143;42.584;23.164;2023-05-07T14:21:38;6.90;;;2.60;;
10201;SDS011;5143;42.584;23.164;2023-05-07T14:24:07;8.97;;;2.87;;
10201;SDS011;5143;42.584;23.164;2023-05-07T14:26:34;6.13;;;2.00;;
10201;SDS011;5143;42.584;23.164;2023-05-07T14:29:01;3.93;;;1.93;;
10201;SDS011;5143;42.584;23.164;2023-05-07T14:31:28;2.40;;;2.00;;
10201;SDS011;5143;42.584;23.164;2023-05-07T14:33:55;3.70;;;2.13;;
10201;SDS011;5143;42.584;23.164;2023-05-07T14:36:23;2.97;;;2.00;;
10201;SDS011;5143;42.584;23.164;2023-05-07T14:38:51;3.50;;;2.00;;
10201;SDS011;5143;42.584;23.164;2023-05-07T14:41:20;3.47;;;2.37;;
10201;SDS011;5143;42.584;23.164;2023-05-07T14:43:48;6.83;;;2.13;;
10201;SDS011;5143;42.584;23.164;2023-05-07T14:46:16;4.77;;;2.40;;
10201;SDS011;5143;42.584;23.164;2023-05-07T14:48:43;5.10;;;1.93;;
10201;SDS011;5143;42.584;23.164;2023-05-07T14:51:11;2.77;;;2.43;;
10201;SDS011;5143;42.584;23.164;2023-05-07T14:53:38;2.73;;;1.90;;
10201;SDS011;5143;42.584;23.164;2023-05-07T14:56:05;2.20;;;1.80;;
10201;SDS011;5143;42.584;23.164;2023-05-07T14:58:33;13.47;;;2.93;;
10201;SDS011;5143;42.584;23.164;2023-05-07T15:01:00;7.37;;;2.43;;
10201;SDS011;5143;42.584;23.164;2023-05-07T15:03:27;5.10;;;2.43;;